sensor_id;sensor_type;location;lat;lon;timestamp;pressure;altitude;pressure_sealevel;temperature;humidity
70841;BME280;58465;51.534;9.934;2023-05-23T00:00:16;99662.72;;;18.97;74.64
70841;BME280;58465;51.534;9.934;2023-05-23T00:02:41;99663.50;;;18.99;74.27
70841;BME280;58465;51.534;9.934;2023-05-23T00:05:07;99656.94;;;18.89;74.50
70841;BME280;58465;51.534;9.934;2023-05-23T00:07:33;99652.47;;;18.88;73.83
70841;BME280;58465;51.534;9.934;2023-05-23T00:09:58;99654.97;;;18.77;74.83
70841;BME280;58465;51.534;9.934;2023-05-23T00:12:24;99648.31;;;18.68;75.36
70841;BME280;58465;51.534;9.934;2023-05-23T00:14:49;99650.44;;;18.63;75.47
70841;BME280;58465;51.534;9.934;2023-05-23T00:17:17;99655.50;;;18.53;75.57
70841;BME280;58465;51.534;9.934;2023-05-23T00:19:42;99655.28;;;18.42;76.05
70841;BME280;58465;51.534;9.934;2023-05-23T00:22:10;99659.97;;;18.54;75.85
70841;BME280;58465;51.534;9.934;2023-05-23T00:24:35;99662.59;;;18.84;74.99
70841;BME280;58465;51.534;9.934;2023-05-23T00:27:01;99650.72;;;18.87;74.36
70841;BME280;58465;51.534;9.934;2023-05-23T00:29:26;99653.75;;;19.11;74.14
70841;BME280;58465;51.534;9.934;2023-05-23T00:31:51;99660.59;;;19.16;73.44
70841;BME280;58465;51.534;9.934;2023-05-23T00:34:16;99653.63;;;19.26;73.51
70841;BME280;58465;51.534;9.934;2023-05-23T00:36:42;99662.44;;;19.30;73.12
70841;BME280;58465;51.534;9.934;2023-05-23T00:39:08;99678.19;;;18.95;73.66
70841;BME280;58465;51.534;9.934;2023-05-23T00:41:41;99677.31;;;18.95;73.68
70841;BME280;58465;51.534;9.934;2023-05-23T00:44:06;99680.72;;;19.12;72.85
70841;BME280;58465;51.534;9.934;2023-05-23T00:46:33;99682.72;;;19.23;72.54
70841;BME280;58465;51.534;9.934;2023-05-23T00:48:59;99688.22;;;19.36;71.67
70841;BME280;58465;51.534;9.934;2023-05-23T00:51:24;99683.09;;;19.45;71.61
70841;BME280;58465;51.534;9.934;2023-05-23T00:53:50;99687.47;;;19.48;70.99
70841;BME280;58465;51.534;9.934;2023-05-23T00:56:16;99695.97;;;19.27;71.10
70841;BME280;58465;51.534;9.934;2023-05-23T00:58:42;99693.97;;;19.03;71.46
70841;BME280;58465;51.534;9.934;2023-05-23T01:01:08;99695.06;;;18.84;72.24
70841;BME280;58465;51.534;9.934;2023-05-23T01:03:33;99681.38;;;18.73;72.71
70841;BME280;58465;51.534;9.934;2023-05-23T01:05:58;99690.38;;;19.02;71.99
70841;BME280;58465;51.534;9.934;2023-05-23T01:08:24;99681.97;;;18.93;72.19
70841;BME280;58465;51.534;9.934;2023-05-23T01:10:50;99678.69;;;19.02;71.57
70841;BME280;58465;51.534;9.934;2023-05-23T01:13:30;99667.56;;;19.06;71.69
70841;BME280;58465;51.534;9.934;2023-05-23T01:16:06;99674.81;;;19.20;71.29
70841;BME280;58465;51.534;9.934;2023-05-23T01:18:52;99682.03;;;19.34;70.86
70841;BME280;58465;51.534;9.934;2023-05-23T01:21:22;99680.09;;;19.36;70.90
70841;BME280;58465;51.534;9.934;2023-05-23T01:29:47;99666.38;;;19.39;70.55
70841;BME280;58465;51.534;9.934;2023-05-23T01:32:17;99667.53;;;19.35;70.64
70841;BME280;58465;51.534;9.934;2023-05-23T01:34:44;99671.59;;;19.27;70.87
70841;BME280;58465;51.534;9.934;2023-05-23T01:37:10;99676.84;;;19.31;71.03
70841;BME280;58465;51.534;9.934;2023-05-23T01:39:36;99675.66;;;19.35;70.69
70841;BME280;58465;51.534;9.934;2023-05-23T01:42:03;99677.44;;;19.21;71.28
70841;BME280;58465;51.534;9.934;2023-05-23T01:44:28;99667.34;;;19.23;71.39
70841;BME280;58465;51.534;9.934;2023-05-23T01:46:55;99669.78;;;19.28;71.16
70841;BME280;58465;51.534;9.934;2023-05-23T01:49:21;99681.19;;;19.19;71.81
70841;BME280;58465;51.534;9.934;2023-05-23T01:51:48;99680.91;;;19.09;72.55
70841;BME280;58465;51.534;9.934;2023-05-23T01:54:14;99682.03;;;19.05;72.74
70841;BME280;58465;51.534;9.934;2023-05-23T01:56:41;99681.47;;;19.00;72.93
70841;BME280;58465;51.534;9.934;2023-05-23T01:59:07;99670.53;;;18.87;73.47
70841;BME280;58465;51.534;9.934;2023-05-23T02:01:33;99682.84;;;19.07;72.68
70841;BME280;58465;51.534;9.934;2023-05-23T02:03:58;99681.56;;;19.13;72.65
70841;BME280;58465;51.534;9.934;2023-05-23T02:06:23;99680.31;;;19.18;72.33
70841;BME280;58465;51.534;9.934;2023-05-23T02:08:48;99688.72;;;18.55;74.25
70841;BME280;58465;51.534;9.934;2023-05-23T02:11:14;99688.41;;;18.62;74.10
70841;BME280;58465;51.534;9.934;2023-05-23T02:13:41;99688.88;;;18.38;74.60
70841;BME280;58465;51.534;9.934;2023-05-23T02:16:06;99691.41;;;18.41;74.32
70841;BME280;58465;51.534;9.934;2023-05-23T02:18:32;99686.41;;;18.49;73.65
70841;BME280;58465;51.534;9.934;2023-05-23T02:20:57;99684.34;;;18.39;72.60
70841;BME280;58465;51.534;9.934;2023-05-23T02:23:22;99684.13;;;18.58;71.95
70841;BME280;58465;51.534;9.934;2023-05-23T02:25:47;99676.53;;;18.34;71.96
70841;BME280;58465;51.534;9.934;2023-05-23T02:28:13;99682.50;;;18.09;71.70
70841;BME280;58465;51.534;9.934;2023-05-23T02:30:38;99678.94;;;18.09;71.76
70841;BME280;58465;51.534;9.934;2023-05-23T02:33:05;99695.94;;;18.41;70.84
70841;BME280;58465;51.534;9.934;2023-05-23T02:35:30;99705.78;;;18.42;70.52
70841;BME280;58465;51.534;9.934;2023-05-23T02:37:56;99702.38;;;18.08;71.55
70841;BME280;58465;51.534;9.934;2023-05-23T02:40:21;99705.19;;;18.07;70.84
70841;BME280;58465;51.534;9.934;2023-05-23T02:42:46;99706.97;;;17.76;71.35
70841;BME280;58465;51.534;9.934;2023-05-23T02:45:11;99715.22;;;17.58;71.03
70841;BME280;58465;51.534;9.934;2023-05-23T02:47:37;99713.38;;;17.58;70.88
70841;BME280;58465;51.534;9.934;2023-05-23T02:50:02;99718.78;;;17.58;70.30
70841;BME280;58465;51.534;9.934;2023-05-23T02:52:27;99726.88;;;17.58;70.07
70841;BME280;58465;51.534;9.934;2023-05-23T02:54:53;99732.69;;;17.51;69.84
70841;BME280;58465;51.534;9.934;2023-05-23T02:57:18;99738.09;;;17.51;69.94
70841;BME280;58465;51.534;9.934;2023-05-23T02:59:43;99732.09;;;17.13;70.38
70841;BME280;58465;51.534;9.934;2023-05-23T03:02:08;99736.84;;;17.40;69.60
70841;BME280;58465;51.534;9.934;2023-05-23T03:04:34;99735.72;;;17.29;69.88
70841;BME280;58465;51.534;9.934;2023-05-23T03:06:59;99737.00;;;17.22;69.44
70841;BME280;58465;51.534;9.934;2023-05-23T03:09:24;99739.63;;;16.90;70.48
70841;BME280;58465;51.534;9.934;2023-05-23T03:11:50;99754.03;;;17.06;69.55
70841;BME280;58465;51.534;9.934;2023-05-23T03:14:15;99748.25;;;16.97;69.67
70841;BME280;58465;51.534;9.934;2023-05-23T03:16:41;99746.72;;;17.09;69.27
70841;BME280;58465;51.534;9.934;2023-05-23T03:19:06;99762.88;;;17.26;69.26
70841;BME280;58465;51.534;9.934;2023-05-23T03:21:31;99751.34;;;17.22;69.17
70841;BME280;58465;51.534;9.934;2023-05-23T03:23:57;99761.16;;;17.40;68.69
70841;BME280;58465;51.534;9.934;2023-05-23T03:26:22;99754.97;;;17.38;68.93
70841;BME280;58465;51.534;9.934;2023-05-23T03:28:48;99766.47;;;17.42;68.63
70841;BME280;58465;51.534;9.934;2023-05-23T03:31:14;99760.56;;;17.51;68.70
70841;BME280;58465;51.534;9.934;2023-05-23T03:33:40;99760.91;;;17.45;68.57
70841;BME280;58465;51.534;9.934;2023-05-23T03:36:05;99762.81;;;17.43;68.74
70841;BME280;58465;51.534;9.934;2023-05-23T03:38:30;99761.94;;;17.42;68.72
70841;BME280;58465;51.534;9.934;2023-05-23T03:40:56;99764.91;;;17.38;68.91
70841;BME280;58465;51.534;9.934;2023-05-23T03:43:21;99759.97;;;17.62;68.30
70841;BME280;58465;51.534;9.934;2023-05-23T03:45:47;99770.97;;;17.59;68.35
70841;BME280;58465;51.534;9.934;2023-05-23T03:48:12;99766.91;;;17.67;67.74
70841;BME280;58465;51.534;9.934;2023-05-23T03:50:38;99771.81;;;17.59;67.55
70841;BME280;58465;51.534;9.934;2023-05-23T03:53:03;99769.53;;;17.52;67.82
70841;BME280;58465;51.534;9.934;2023-05-23T03:55:30;99770.41;;;17.52;68.20
70841;BME280;58465;51.534;9.934;2023-05-23T03:57:56;99760.28;;;17.73;67.29
70841;BME280;58465;51.534;9.934;2023-05-23T04:00:21;99765.25;;;17.80;66.98
70841;BME280;58465;51.534;9.934;2023-05-23T04:02:47;99760.72;;;17.97;66.33
70841;BME280;58465;51.534;9.934;2023-05-23T04:05:12;99758.31;;;17.59;67.42
70841;BME280;58465;51.534;9.934;2023-05-23T04:07:37;99759.16;;;17.93;66.60
70841;BME280;58465;51.534;9.934;2023-05-23T04:10:04;99766.13;;;18.12;65.92
70841;BME280;58465;51.534;9.934;2023-05-23T04:12:29;99764.19;;;18.14;65.73
70841;BME280;58465;51.534;9.934;2023-05-23T04:14:55;99764.03;;;18.02;66.27
70841;BME280;58465;51.534;9.934;2023-05-23T04:17:22;99769.69;;;18.13;65.76
70841;BME280;58465;51.534;9.934;2023-05-23T04:19:48;99774.47;;;18.24;65.67
70841;BME280;58465;51.534;9.934;2023-05-23T04:22:13;99778.22;;;18.21;65.80
70841;BME280;58465;51.534;9.934;2023-05-23T04:24:38;99778.50;;;18.01;66.39
70841;BME280;58465;51.534;9.934;2023-05-23T04:27:04;99775.78;;;18.01;66.61
70841;BME280;58465;51.534;9.934;2023-05-23T04:29:29;99779.00;;;17.92;66.52
70841;BME280;58465;51.534;9.934;2023-05-23T04:31:56;99779.78;;;17.62;67.16
70841;BME280;58465;51.534;9.934;2023-05-23T04:34:21;99776.03;;;17.65;66.86
70841;BME280;58465;51.534;9.934;2023-05-23T04:36:47;99773.84;;;17.71;66.16
70841;BME280;58465;51.534;9.934;2023-05-23T04:39:13;99782.59;;;17.76;65.45
70841;BME280;58465;51.534;9.934;2023-05-23T04:41:40;99786.28;;;17.58;65.67
70841;BME280;58465;51.534;9.934;2023-05-23T04:44:05;99795.16;;;17.77;64.73
70841;BME280;58465;51.534;9.934;2023-05-23T04:46:30;99794.72;;;17.85;64.21
70841;BME280;58465;51.534;9.934;2023-05-23T04:48:56;99787.03;;;17.93;63.65
70841;BME280;58465;51.534;9.934;2023-05-23T04:51:22;99800.78;;;17.89;63.49
70841;BME280;58465;51.534;9.934;2023-05-23T04:53:50;99799.13;;;17.70;63.75
70841;BME280;58465;51.534;9.934;2023-05-23T04:56:15;99805.59;;;17.84;63.21
70841;BME280;58465;51.534;9.934;2023-05-23T04:58:46;99812.81;;;17.83;63.25
70841;BME280;58465;51.534;9.934;2023-05-23T05:01:15;99808.19;;;17.69;63.93
70841;BME280;58465;51.534;9.934;2023-05-23T05:03:43;99814.66;;;17.83;63.67
70841;BME280;58465;51.534;9.934;2023-05-23T05:06:08;99815.78;;;17.78;63.81
70841;BME280;58465;51.534;9.934;2023-05-23T05:08:34;99811.00;;;17.51;64.47
70841;BME280;58465;51.534;9.934;2023-05-23T05:11:00;99810.66;;;17.74;63.74
70841;BME280;58465;51.534;9.934;2023-05-23T05:13:25;99808.38;;;17.82;63.44
70841;BME280;58465;51.534;9.934;2023-05-23T05:15:50;99809.72;;;17.58;64.40
70841;BME280;58465;51.534;9.934;2023-05-23T05:18:16;99802.97;;;17.66;64.31
70841;BME280;58465;51.534;9.934;2023-05-23T05:20:42;99808.13;;;17.87;63.92
70841;BME280;58465;51.534;9.934;2023-05-23T05:23:07;99807.25;;;17.86;63.76
70841;BME280;58465;51.534;9.934;2023-05-23T05:25:34;99799.66;;;17.44;64.17
70841;BME280;58465;51.534;9.934;2023-05-23T05:28:01;99798.25;;;17.70;63.90
70841;BME280;58465;51.534;9.934;2023-05-23T05:30:30;99802.50;;;17.41;64.41
70841;BME280;58465;51.534;9.934;2023-05-23T05:32:57;99800.97;;;17.53;64.12
70841;BME280;58465;51.534;9.934;2023-05-23T05:35:23;99809.09;;;18.01;62.99
70841;BME280;58465;51.534;9.934;2023-05-23T05:37:48;99791.91;;;18.02;62.70
70841;BME280;58465;51.534;9.934;2023-05-23T05:40:14;99794.97;;;17.96;62.76
70841;BME280;58465;51.534;9.934;2023-05-23T05:42:39;99799.00;;;18.05;62.64
70841;BME280;58465;51.534;9.934;2023-05-23T05:45:05;99793.03;;;17.98;62.71
70841;BME280;58465;51.534;9.934;2023-05-23T05:47:30;99811.00;;;17.99;62.53
70841;BME280;58465;51.534;9.934;2023-05-23T05:49:55;99798.44;;;18.30;61.55
70841;BME280;58465;51.534;9.934;2023-05-23T05:52:21;99810.81;;;18.18;61.75
70841;BME280;58465;51.534;9.934;2023-05-23T05:54:46;99818.78;;;17.57;63.47
70841;BME280;58465;51.534;9.934;2023-05-23T05:57:12;99813.34;;;17.74;62.88
70841;BME280;58465;51.534;9.934;2023-05-23T05:59:37;99817.28;;;18.00;62.40
70841;BME280;58465;51.534;9.934;2023-05-23T06:02:02;99812.78;;;18.16;61.77
70841;BME280;58465;51.534;9.934;2023-05-23T06:04:28;99813.53;;;18.18;61.92
70841;BME280;58465;51.534;9.934;2023-05-23T06:06:53;99813.94;;;18.26;61.79
70841;BME280;58465;51.534;9.934;2023-05-23T06:09:18;99819.38;;;18.10;62.25
70841;BME280;58465;51.534;9.934;2023-05-23T06:11:43;99822.06;;;18.10;62.22
70841;BME280;58465;51.534;9.934;2023-05-23T06:14:09;99814.25;;;17.57;63.77
70841;BME280;58465;51.534;9.934;2023-05-23T06:16:34;99825.19;;;17.21;65.62
70841;BME280;58465;51.534;9.934;2023-05-23T06:18:59;99829.28;;;17.46;64.76
70841;BME280;58465;51.534;9.934;2023-05-23T06:21:25;99823.78;;;17.14;66.54
70841;BME280;58465;51.534;9.934;2023-05-23T06:23:50;99828.72;;;16.89;67.69
70841;BME280;58465;51.534;9.934;2023-05-23T06:26:16;99827.25;;;17.16;67.02
70841;BME280;58465;51.534;9.934;2023-05-23T06:28:41;99828.22;;;17.15;67.36
70841;BME280;58465;51.534;9.934;2023-05-23T06:31:07;99827.47;;;17.46;66.40
70841;BME280;58465;51.534;9.934;2023-05-23T06:33:37;99822.84;;;17.65;65.92
70841;BME280;58465;51.534;9.934;2023-05-23T06:36:02;99827.72;;;17.74;65.73
70841;BME280;58465;51.534;9.934;2023-05-23T06:38:28;99827.66;;;17.92;65.30
70841;BME280;58465;51.534;9.934;2023-05-23T06:40:55;99829.84;;;17.85;66.34
70841;BME280;58465;51.534;9.934;2023-05-23T06:43:20;99822.00;;;18.12;65.43
70841;BME280;58465;51.534;9.934;2023-05-23T06:45:46;99827.75;;;18.06;65.94
70841;BME280;58465;51.534;9.934;2023-05-23T06:48:14;99820.88;;;18.16;66.13
70841;BME280;58465;51.534;9.934;2023-05-23T06:50:40;99815.53;;;18.30;65.52
70841;BME280;58465;51.534;9.934;2023-05-23T06:53:05;99819.81;;;18.18;65.93
70841;BME280;58465;51.534;9.934;2023-05-23T06:55:31;99812.06;;;18.12;65.86
70841;BME280;58465;51.534;9.934;2023-05-23T06:57:59;99824.16;;;17.90;66.93
70841;BME280;58465;51.534;9.934;2023-05-23T07:00:25;99819.38;;;17.95;66.62
70841;BME280;58465;51.534;9.934;2023-05-23T07:02:50;99826.47;;;17.97;66.33
70841;BME280;58465;51.534;9.934;2023-05-23T07:05:15;99823.47;;;18.02;66.47
70841;BME280;58465;51.534;9.934;2023-05-23T07:07:41;99823.13;;;17.76;67.79
70841;BME280;58465;51.534;9.934;2023-05-23T07:10:08;99826.97;;;17.55;68.34
70841;BME280;58465;51.534;9.934;2023-05-23T07:12:33;99825.22;;;17.04;69.63
70841;BME280;58465;51.534;9.934;2023-05-23T07:14:59;99833.38;;;17.20;69.56
70841;BME280;58465;51.534;9.934;2023-05-23T07:17:24;99823.88;;;17.46;68.70
70841;BME280;58465;51.534;9.934;2023-05-23T07:19:49;99826.06;;;17.22;69.06
70841;BME280;58465;51.534;9.934;2023-05-23T07:22:15;99820.53;;;17.58;67.96
70841;BME280;58465;51.534;9.934;2023-05-23T07:24:40;99820.66;;;17.72;67.75
70841;BME280;58465;51.534;9.934;2023-05-23T07:27:05;99824.16;;;17.90;66.81
70841;BME280;58465;51.534;9.934;2023-05-23T07:29:31;99829.03;;;17.99;66.07
70841;BME280;58465;51.534;9.934;2023-05-23T07:31:56;99825.63;;;17.79;66.85
70841;BME280;58465;51.534;9.934;2023-05-23T07:34:22;99823.75;;;17.97;66.57
70841;BME280;58465;51.534;9.934;2023-05-23T07:36:48;99828.53;;;18.08;66.13
70841;BME280;58465;51.534;9.934;2023-05-23T07:39:14;99828.97;;;18.00;66.42
70841;BME280;58465;51.534;9.934;2023-05-23T07:41:39;99823.50;;;17.36;68.51
70841;BME280;58465;51.534;9.934;2023-05-23T07:44:06;99827.34;;;17.15;69.58
70841;BME280;58465;51.534;9.934;2023-05-23T07:46:31;99829.00;;;17.17;69.71
70841;BME280;58465;51.534;9.934;2023-05-23T07:48:56;99826.25;;;17.52;68.63
70841;BME280;58465;51.534;9.934;2023-05-23T07:51:22;99831.09;;;17.62;68.25
70841;BME280;58465;51.534;9.934;2023-05-23T07:53:48;99827.56;;;17.93;67.09
70841;BME280;58465;51.534;9.934;2023-05-23T07:56:13;99828.28;;;17.97;67.09
70841;BME280;58465;51.534;9.934;2023-05-23T07:58:38;99833.47;;;17.51;68.82
70841;BME280;58465;51.534;9.934;2023-05-23T08:01:03;99830.44;;;17.74;68.13
70841;BME280;58465;51.534;9.934;2023-05-23T08:03:29;99828.25;;;17.31;69.09
70841;BME280;58465;51.534;9.934;2023-05-23T08:05:55;99833.63;;;17.65;68.85
70841;BME280;58465;51.534;9.934;2023-05-23T08:08:20;99843.94;;;17.90;67.90
70841;BME280;58465;51.534;9.934;2023-05-23T08:10:45;99840.69;;;17.51;69.11
70841;BME280;58465;51.534;9.934;2023-05-23T08:13:11;99851.09;;;17.75;68.63
70841;BME280;58465;51.534;9.934;2023-05-23T08:15:36;99850.56;;;18.00;68.11
70841;BME280;58465;51.534;9.934;2023-05-23T08:18:03;99852.06;;;17.40;69.36
70841;BME280;58465;51.534;9.934;2023-05-23T08:20:28;99860.75;;;17.12;70.44
70841;BME280;58465;51.534;9.934;2023-05-23T08:22:58;99867.97;;;17.12;70.57
70841;BME280;58465;51.534;9.934;2023-05-23T08:25:25;99858.97;;;17.46;69.90
70841;BME280;58465;51.534;9.934;2023-05-23T08:27:54;99865.03;;;17.33;70.62
70841;BME280;58465;51.534;9.934;2023-05-23T08:30:20;99871.97;;;17.72;70.09
70841;BME280;58465;51.534;9.934;2023-05-23T08:32:47;99871.72;;;18.25;68.14
70841;BME280;58465;51.534;9.934;2023-05-23T08:35:13;99871.00;;;18.06;68.45
70841;BME280;58465;51.534;9.934;2023-05-23T08:37:38;99875.47;;;17.74;69.01
70841;BME280;58465;51.534;9.934;2023-05-23T08:40:06;99880.00;;;17.73;69.41
70841;BME280;58465;51.534;9.934;2023-05-23T08:42:37;99885.97;;;17.63;69.09
70841;BME280;58465;51.534;9.934;2023-05-23T08:45:03;99884.09;;;17.13;70.49
70841;BME280;58465;51.534;9.934;2023-05-23T08:47:31;99884.22;;;17.44;69.54
70841;BME280;58465;51.534;9.934;2023-05-23T08:50:00;99888.59;;;17.47;69.26
70841;BME280;58465;51.534;9.934;2023-05-23T08:52:28;99897.59;;;17.80;67.85
70841;BME280;58465;51.534;9.934;2023-05-23T08:54:54;99885.69;;;17.85;67.30
70841;BME280;58465;51.534;9.934;2023-05-23T08:57:20;99893.09;;;17.81;67.27
70841;BME280;58465;51.534;9.934;2023-05-23T08:59:47;99897.81;;;17.77;67.36
70841;BME280;58465;51.534;9.934;2023-05-23T09:02:13;99898.84;;;17.91;66.76
70841;BME280;58465;51.534;9.934;2023-05-23T09:04:39;99908.28;;;17.32;68.69
70841;BME280;58465;51.534;9.934;2023-05-23T09:07:05;99913.41;;;17.38;68.95
70841;BME280;58465;51.534;9.934;2023-05-23T09:09:30;99913.97;;;17.60;68.20
70841;BME280;58465;51.534;9.934;2023-05-23T09:11:57;99920.44;;;17.58;68.42
70841;BME280;58465;51.534;9.934;2023-05-23T09:14:24;99920.22;;;17.95;66.75
70841;BME280;58465;51.534;9.934;2023-05-23T09:16:50;99930.97;;;17.97;66.27
70841;BME280;58465;51.534;9.934;2023-05-23T09:19:17;99933.09;;;17.90;66.35
70841;BME280;58465;51.534;9.934;2023-05-23T09:21:43;99929.59;;;17.88;66.57
70841;BME280;58465;51.534;9.934;2023-05-23T09:24:10;99938.25;;;17.10;68.36
70841;BME280;58465;51.534;9.934;2023-05-23T09:26:36;99936.91;;;17.19;67.93
70841;BME280;58465;51.534;9.934;2023-05-23T09:29:04;99940.13;;;17.25;67.39
70841;BME280;58465;51.534;9.934;2023-05-23T09:31:31;99944.38;;;16.78;69.07
70841;BME280;58465;51.534;9.934;2023-05-23T09:33:57;99953.47;;;16.56;72.33
70841;BME280;58465;51.534;9.934;2023-05-23T09:36:26;99959.09;;;16.33;73.12
70841;BME280;58465;51.534;9.934;2023-05-23T09:38:53;99958.88;;;16.38;73.25
70841;BME280;58465;51.534;9.934;2023-05-23T09:41:19;99955.88;;;16.25;74.23
70841;BME280;58465;51.534;9.934;2023-05-23T09:43:50;99954.47;;;16.16;74.45
70841;BME280;58465;51.534;9.934;2023-05-23T09:46:19;99960.09;;;16.12;75.04
70841;BME280;58465;51.534;9.934;2023-05-23T09:48:48;99961.09;;;16.09;73.90
70841;BME280;58465;51.534;9.934;2023-05-23T09:51:17;99958.50;;;15.87;74.48
70841;BME280;58465;51.534;9.934;2023-05-23T09:53:46;99969.31;;;16.06;73.97
70841;BME280;58465;51.534;9.934;2023-05-23T09:56:12;99959.75;;;15.80;73.40
70841;BME280;58465;51.534;9.934;2023-05-23T09:58:38;99974.50;;;16.11;73.03
70841;BME280;58465;51.534;9.934;2023-05-23T10:01:06;99976.41;;;16.27;72.28
70841;BME280;58465;51.534;9.934;2023-05-23T10:03:38;99981.16;;;16.22;72.64
70841;BME280;58465;51.534;9.934;2023-05-23T10:06:09;99988.88;;;16.11;72.77
70841;BME280;58465;51.534;9.934;2023-05-23T10:08:39;99990.44;;;16.15;72.39
70841;BME280;58465;51.534;9.934;2023-05-23T10:13:50;100004.66;;;15.80;72.04
70841;BME280;58465;51.534;9.934;2023-05-23T10:16:26;100000.19;;;15.79;72.44
70841;BME280;58465;51.534;9.934;2023-05-23T10:18:57;100011.25;;;15.93;72.12
70841;BME280;58465;51.534;9.934;2023-05-23T10:21:27;100015.13;;;16.06;71.75
70841;BME280;58465;51.534;9.934;2023-05-23T10:23:57;100015.72;;;15.52;71.52
70841;BME280;58465;51.534;9.934;2023-05-23T10:26:26;100014.31;;;15.43;72.35
70841;BME280;58465;51.534;9.934;2023-05-23T10:28:51;100025.72;;;15.28;73.13
70841;BME280;58465;51.534;9.934;2023-05-23T10:31:18;100024.13;;;15.66;72.25
70841;BME280;58465;51.534;9.934;2023-05-23T10:33:53;100032.22;;;16.05;71.60
70841;BME280;58465;51.534;9.934;2023-05-23T10:36:52;100033.06;;;15.87;70.91
70841;BME280;58465;51.534;9.934;2023-05-23T10:42:14;100042.22;;;15.41;72.40
70841;BME280;58465;51.534;9.934;2023-05-23T10:44:41;100044.97;;;15.39;72.35
70841;BME280;58465;51.534;9.934;2023-05-23T10:47:06;100049.34;;;15.64;70.94
70841;BME280;58465;51.534;9.934;2023-05-23T10:49:40;100044.66;;;15.47;70.76
70841;BME280;58465;51.534;9.934;2023-05-23T10:52:06;100053.34;;;15.75;70.19
70841;BME280;58465;51.534;9.934;2023-05-23T10:54:35;100044.97;;;16.02;68.93
70841;BME280;58465;51.534;9.934;2023-05-23T10:57:05;100062.91;;;15.82;68.40
70841;BME280;58465;51.534;9.934;2023-05-23T10:59:30;100058.63;;;15.77;68.14
70841;BME280;58465;51.534;9.934;2023-05-23T11:01:56;100067.53;;;15.79;68.72
70841;BME280;58465;51.534;9.934;2023-05-23T11:04:26;100070.63;;;15.90;67.40
70841;BME280;58465;51.534;9.934;2023-05-23T11:06:53;100069.69;;;16.11;67.03
70841;BME280;58465;51.534;9.934;2023-05-23T11:09:19;100068.63;;;15.95;67.03
70841;BME280;58465;51.534;9.934;2023-05-23T11:11:51;100072.91;;;15.79;66.90
70841;BME280;58465;51.534;9.934;2023-05-23T11:14:16;100072.31;;;15.72;66.94
70841;BME280;58465;51.534;9.934;2023-05-23T11:16:42;100071.38;;;15.93;66.62
70841;BME280;58465;51.534;9.934;2023-05-23T11:21:48;100073.63;;;16.04;66.13
70841;BME280;58465;51.534;9.934;2023-05-23T11:24:14;100076.00;;;16.30;66.08
70841;BME280;58465;51.534;9.934;2023-05-23T11:26:51;100072.66;;;16.44;64.82
70841;BME280;58465;51.534;9.934;2023-05-23T11:29:18;100071.84;;;16.03;65.56
70841;BME280;58465;51.534;9.934;2023-05-23T11:31:44;100079.47;;;15.93;66.32
70841;BME280;58465;51.534;9.934;2023-05-23T11:34:10;100075.41;;;16.24;65.72
70841;BME280;58465;51.534;9.934;2023-05-23T11:36:36;100082.72;;;16.41;64.54
70841;BME280;58465;51.534;9.934;2023-05-23T11:39:02;100071.44;;;16.32;65.02
70841;BME280;58465;51.534;9.934;2023-05-23T11:41:29;100072.31;;;16.13;64.94
70841;BME280;58465;51.534;9.934;2023-05-23T11:43:56;100082.22;;;16.12;65.40
70841;BME280;58465;51.534;9.934;2023-05-23T11:46:22;100078.28;;;16.40;65.41
70841;BME280;58465;51.534;9.934;2023-05-23T11:48:47;100089.66;;;16.46;64.68
70841;BME280;58465;51.534;9.934;2023-05-23T11:51:16;100087.13;;;16.43;65.16
70841;BME280;58465;51.534;9.934;2023-05-23T11:53:41;100093.66;;;15.97;66.49
70841;BME280;58465;51.534;9.934;2023-05-23T11:56:07;100090.88;;;16.39;66.03
70841;BME280;58465;51.534;9.934;2023-05-23T11:58:37;100093.81;;;16.53;64.98
70841;BME280;58465;51.534;9.934;2023-05-23T12:01:07;100091.97;;;16.15;65.39
70841;BME280;58465;51.534;9.934;2023-05-23T12:03:33;100094.41;;;16.01;66.30
70841;BME280;58465;51.534;9.934;2023-05-23T12:06:00;100097.69;;;16.27;65.74
70841;BME280;58465;51.534;9.934;2023-05-23T12:08:26;100102.78;;;15.94;66.43
70841;BME280;58465;51.534;9.934;2023-05-23T12:10:56;100111.44;;;16.01;66.42
70841;BME280;58465;51.534;9.934;2023-05-23T12:13:24;100121.81;;;16.10;66.55
70841;BME280;58465;51.534;9.934;2023-05-23T12:16:00;100116.97;;;15.98;65.88
70841;BME280;58465;51.534;9.934;2023-05-23T12:18:30;100125.38;;;15.90;65.83
70841;BME280;58465;51.534;9.934;2023-05-23T12:21:03;100133.16;;;15.76;66.23
70841;BME280;58465;51.534;9.934;2023-05-23T12:23:30;100124.41;;;16.13;65.32
70841;BME280;58465;51.534;9.934;2023-05-23T12:25:56;100142.00;;;15.80;64.52
70841;BME280;58465;51.534;9.934;2023-05-23T12:28:37;100140.06;;;15.62;66.18
70841;BME280;58465;51.534;9.934;2023-05-23T12:31:15;100141.50;;;16.12;64.96
70841;BME280;58465;51.534;9.934;2023-05-23T12:33:42;100146.47;;;16.01;65.03
70841;BME280;58465;51.534;9.934;2023-05-23T12:36:08;100146.31;;;15.84;65.19
70841;BME280;58465;51.534;9.934;2023-05-23T12:38:35;100145.66;;;15.99;65.25
70841;BME280;58465;51.534;9.934;2023-05-23T12:41:14;100148.56;;;15.51;66.96
70841;BME280;58465;51.534;9.934;2023-05-23T12:43:40;100156.63;;;15.51;66.89
70841;BME280;58465;51.534;9.934;2023-05-23T12:46:10;100150.81;;;15.18;68.39
70841;BME280;58465;51.534;9.934;2023-05-23T12:48:35;100159.66;;;15.43;67.79
70841;BME280;58465;51.534;9.934;2023-05-23T12:51:02;100171.78;;;15.32;67.32
70841;BME280;58465;51.534;9.934;2023-05-23T12:53:28;100164.53;;;15.34;67.12
70841;BME280;58465;51.534;9.934;2023-05-23T12:55:53;100171.31;;;15.20;67.55
70841;BME280;58465;51.534;9.934;2023-05-23T12:58:19;100170.53;;;15.40;67.24
70841;BME280;58465;51.534;9.934;2023-05-23T13:00:44;100173.91;;;15.23;67.59
70841;BME280;58465;51.534;9.934;2023-05-23T13:03:10;100179.78;;;15.33;66.82
70841;BME280;58465;51.534;9.934;2023-05-23T13:05:35;100174.03;;;15.42;67.10
70841;BME280;58465;51.534;9.934;2023-05-23T13:08:00;100184.97;;;15.61;66.27